Time,TemperatureF,DewpointF,PressureIn,WindDirection,WindDirectionDegrees,WindSpeedMPH,WindSpeedGustMPH,Humidity,HourlyPrecipIn,Conditions,Clouds,dailyrainin,SoftwareType,DateUTC
2014-08-29 00:01:00,57.0,30.4,0.00,West,269,0.0,0.0,36,0.00,,---,0.00,VWS V15.00,2014-08-29 04:01:00,
2014-08-29 00:03:00,56.8,30.2,0.00,West,269,0.0,0.0,36,0.00,,---,0.00,VWS V15.00,2014-08-29 04:03:00,
2014-08-29 00:05:00,56.8,30.2,0.00,West,269,0.0,0.0,36,0.00,,---,0.00,VWS V15.00,2014-08-29 04:05:00,
2014-08-29 00:09:00,56.7,30.0,0.00,West,269,0.0,0.0,36,0.00,,---,0.00,VWS V15.00,2014-08-29 04:09:00,
2014-08-29 00:14:00,56.7,30.7,0.00,West,269,0.0,0.0,37,0.00,,---,0.00,VWS V15.00,2014-08-29 04:14:00,
2014-08-29 00:17:00,56.7,30.0,0.00,West,269,0.0,0.0,36,0.00,,---,0.00,VWS V15.00,2014-08-29 04:17:00,
2014-08-29 00:23:00,56.7,30.0,0.00,West,269,0.0,0.0,36,0.00,,---,0.00,VWS V15.00,2014-08-29 04:23:00,
2014-08-29 00:28:00,56.7,31.4,0.00,West,269,0.0,0.0,38,0.00,,---,0.00,VWS V15.00,2014-08-29 04:28:00,
2014-08-29 00:51:00,56.3,31.7,0.00,West,269,0.0,0.0,39,0.00,,---,0.00,VWS V15.00,2014-08-29 04:51:00,
2014-08-29 00:56:00,56.5,31.8,0.00,West,269,0.0,0.0,39,0.00,,---,0.00,VWS V15.00,2014-08-29 04:56:00,
2014-08-29 01:02:00,56.7,32.0,0.00,West,269,0.0,0.0,39,0.00,,---,0.00,VWS V15.00,2014-08-29 05:02:00,
2014-08-29 01:08:00,56.7,31.4,0.00,West,269,0.0,0.0,38,0.00,,---,0.00,VWS V15.00,2014-08-29 05:08:00,
2014-08-29 01:13:00,56.7,31.4,0.00,West,269,0.0,0.0,38,0.00,,---,0.00,VWS V15.00,2014-08-29 05:13:00,
2014-08-29 01:18:00,56.5,31.2,0.00,West,269,0.0,0.0,38,0.00,,---,0.00,VWS V15.00,2014-08-29 05:18:00,
2014-08-29 01:23:00,56.1,30.9,0.00,West,269,0.0,0.0,38,0.00,,---,0.00,VWS V15.00,2014-08-29 05:23:00,
2014-08-29 01:29:00,55.9,30.7,0.00,West,269,0.0,0.0,38,0.00,,---,0.00,VWS V15.00,2014-08-29 05:29:00,
2014-08-29 01:59:00,56.3,30.4,0.00,West,269,0.0,0.0,37,0.00,,---,0.00,VWS V15.00,2014-08-29 05:59:00,
2014-08-29 02:05:00,56.3,29.7,0.00,West,269,0.0,0.0,36,0.00,,---,0.00,VWS V15.00,2014-08-29 06:05:00,
2014-08-29 02:10:00,56.3,29.7,0.00,West,269,0.0,0.0,36,0.00,,---,0.00,VWS V15.00,2014-08-29 06:10:00,
2014-08-29 02:15:00,56.1,29.5,0.00,West,269,0.0,0.0,36,0.00,,---,0.00,VWS V15.00,2014-08-29 06:15:00,
2014-08-29 02:21:00,55.9,29.4,0.00,West,269,0.0,0.0,36,0.00,,---,0.00,VWS V15.00,2014-08-29 06:21:00,
2014-08-29 02:26:00,55.8,29.2,0.00,West,269,0.0,0.0,36,0.00,,---,0.00,VWS V15.00,2014-08-29 06:26:00,
2014-08-29 02:31:00,55.4,28.9,0.00,West,269,0.0,0.0,36,0.00,,---,0.00,VWS V15.00,2014-08-29 06:31:00,
2014-08-29 02:50:00,54.7,28.9,0.00,West,269,0.0,0.0,37,0.00,,---,0.00,VWS V15.00,2014-08-29 06:50:00,
2014-08-29 02:55:00,54.5,28.8,0.00,West,269,0.0,0.0,37,0.00,,---,0.00,VWS V15.00,2014-08-29 06:55:00,
2014-08-29 03:01:00,54.3,28.6,0.00,West,269,0.0,0.0,37,0.00,,---,0.00,VWS V15.00,2014-08-29 07:01:00,
2014-08-29 03:07:00,54.1,28.5,0.00,West,269,0.0,0.0,37,0.00,,---,0.00,VWS V15.00,2014-08-29 07:07:00,
2014-08-29 03:12:00,54.0,28.3,0.00,West,269,0.0,0.0,37,0.00,,---,0.00,VWS V15.00,2014-08-29 07:12:00,
2014-08-29 03:19:00,53.8,28.1,0.00,West,269,0.0,0.0,37,0.00,,---,0.00,VWS V15.00,2014-08-29 07:19:00,
2014-08-29 03:24:00,53.6,28.0,0.00,West,269,0.0,0.0,37,0.00,,---,0.00,VWS V15.00,2014-08-29 07:24:00,
2014-08-29 03:29:00,53.4,29.1,0.00,West,269,0.0,0.0,39,0.00,,---,0.00,VWS V15.00,2014-08-29 07:29:00,
2014-08-29 03:59:00,52.5,28.9,0.00,West,269,0.0,0.0,40,0.00,,---,0.00,VWS V15.00,2014-08-29 07:59:00,
2014-08-29 04:04:00,52.2,28.6,0.00,West,269,0.0,0.0,40,0.00,,---,0.00,VWS V15.00,2014-08-29 08:04:00,
2014-08-29 04:09:00,52.2,29.2,0.00,West,269,0.0,0.0,41,0.00,,---,0.00,VWS V15.00,2014-08-29 08:09:00,
2014-08-29 04:15:00,52.2,29.2,0.00,West,269,0.0,0.0,41,0.00,,---,0.00,VWS V15.00,2014-08-29 08:15:00,
2014-08-29 04:21:00,51.8,28.9,0.00,West,269,0.0,0.0,41,0.00,,---,0.00,VWS V15.00,2014-08-29 08:21:00,
2014-08-29 04:26:00,51.6,28.7,0.00,West,269,0.0,0.0,41,0.00,,---,0.00,VWS V15.00,2014-08-29 08:26:00,
2014-08-29 04:32:00,51.4,28.5,0.00,West,269,0.0,0.0,41,0.00,,---,0.00,VWS V15.00,2014-08-29 08:32:00,
2014-08-29 04:50:00,51.3,29.0,0.00,West,269,0.0,0.0,42,0.00,,---,0.00,VWS V15.00,2014-08-29 08:50:00,
2014-08-29 04:55:00,51.3,29.0,0.00,West,269,0.0,0.0,42,0.00,,---,0.00,VWS V15.00,2014-08-29 08:55:00,
2014-08-29 05:00:00,51.3,29.0,0.00,West,269,0.0,0.0,42,0.00,,---,0.00,VWS V15.00,2014-08-29 09:00:00,
2014-08-29 05:06:00,51.1,28.2,0.00,West,269,0.0,0.0,41,0.00,,---,0.00,VWS V15.00,2014-08-29 09:06:00,
2014-08-29 05:12:00,51.1,28.2,0.00,West,269,0.0,0.0,41,0.00,,---,0.00,VWS V15.00,2014-08-29 09:12:00,
2014-08-29 05:18:00,50.9,28.1,0.00,West,269,0.0,0.0,41,0.00,,---,0.00,VWS V15.00,2014-08-29 09:18:00,
2014-08-29 05:23:00,50.7,27.9,0.00,West,269,0.0,0.0,41,0.00,,---,0.00,VWS V15.00,2014-08-29 09:23:00,
2014-08-29 05:28:00,50.7,27.9,0.00,West,269,0.0,0.0,41,0.00,,---,0.00,VWS V15.00,2014-08-29 09:28:00,
2014-08-29 05:59:00,50.2,27.4,0.00,West,269,0.0,0.0,41,0.00,,---,0.00,VWS V15.00,2014-08-29 09:59:00,
2014-08-29 06:04:00,50.0,27.8,0.00,West,269,0.0,0.0,42,0.00,,---,0.00,VWS V15.00,2014-08-29 10:04:00,
2014-08-29 06:09:00,50.0,28.4,0.00,West,269,0.0,0.0,43,0.00,,---,0.00,VWS V15.00,2014-08-29 10:09:00,
2014-08-29 06:14:00,49.8,28.2,0.00,West,269,0.0,0.0,43,0.00,,---,0.00,VWS V15.00,2014-08-29 10:14:00,
2014-08-29 06:20:00,49.8,28.2,0.00,West,269,0.0,0.0,43,0.00,,---,0.00,VWS V15.00,2014-08-29 10:20:00,
2014-08-29 06:25:00,49.8,27.7,0.00,West,269,0.0,0.0,42,0.00,,---,0.00,VWS V15.00,2014-08-29 10:25:00,
2014-08-29 06:31:00,49.8,29.4,0.00,West,269,0.0,0.0,45,0.00,,---,0.00,VWS V15.00,2014-08-29 10:31:00,
2014-08-29 06:50:00,49.5,28.5,0.00,West,269,0.0,0.0,44,0.00,,---,0.00,VWS V15.00,2014-08-29 10:50:00,
2014-08-29 06:56:00,49.3,27.8,0.00,West,269,0.0,0.0,43,0.00,,---,0.00,VWS V15.00,2014-08-29 10:56:00,
2014-08-29 07:01:00,49.3,28.3,0.00,West,269,0.0,0.0,44,0.00,,---,0.00,VWS V15.00,2014-08-29 11:01:00,
2014-08-29 07:06:00,49.3,28.3,0.00,West,269,0.0,0.0,44,0.00,,---,0.00,VWS V15.00,2014-08-29 11:06:00,
2014-08-29 07:12:00,49.5,28.5,0.00,West,269,0.0,0.0,44,0.00,,---,0.00,VWS V15.00,2014-08-29 11:12:00,
2014-08-29 07:17:00,49.6,28.6,0.00,West,269,0.0,0.0,44,0.00,,---,0.00,VWS V15.00,2014-08-29 11:17:00,
2014-08-29 07:23:00,49.8,28.8,0.00,West,269,0.0,0.0,44,0.00,,---,0.00,VWS V15.00,2014-08-29 11:23:00,
2014-08-29 07:28:00,50.2,29.1,0.00,West,269,0.0,0.0,44,0.00,,---,0.00,VWS V15.00,2014-08-29 11:28:00,
2014-08-29 07:59:00,53.1,33.4,0.00,West,269,0.0,0.0,47,0.00,,---,0.00,VWS V15.00,2014-08-29 11:59:00,
2014-08-29 08:04:00,53.8,33.5,0.00,West,269,0.0,0.0,46,0.00,,---,0.00,VWS V15.00,2014-08-29 12:04:00,
2014-08-29 08:10:00,54.5,34.2,0.00,West,269,0.0,0.0,46,0.00,,---,0.00,VWS V15.00,2014-08-29 12:10:00,
2014-08-29 08:16:00,55.2,34.3,0.00,West,269,0.0,0.0,45,0.00,,---,0.00,VWS V15.00,2014-08-29 12:16:00,
2014-08-29 08:21:00,55.9,33.2,0.00,West,269,0.0,0.0,42,0.00,,---,0.00,VWS V15.00,2014-08-29 12:21:00,
2014-08-29 08:27:00,56.7,32.6,0.00,West,269,0.0,0.0,40,0.00,,---,0.00,VWS V15.00,2014-08-29 12:27:00,
2014-08-29 08:32:00,57.0,33.0,0.00,West,269,0.0,0.0,40,0.00,,---,0.00,VWS V15.00,2014-08-29 12:32:00,
2014-08-29 08:50:00,59.4,32.4,0.00,West,269,0.0,0.0,36,0.00,,---,0.00,VWS V15.00,2014-08-29 12:50:00,
2014-08-29 08:55:00,59.9,32.9,0.00,West,270,0.0,0.0,36,0.00,,---,0.00,VWS V15.00,2014-08-29 12:55:00,
2014-08-29 09:02:00,60.6,33.5,0.00,West,270,0.0,0.0,36,0.00,,---,0.00,VWS V15.00,2014-08-29 13:02:00,
2014-08-29 09:07:00,61.3,33.5,0.00,West,270,0.0,0.0,35,0.00,,---,0.00,VWS V15.00,2014-08-29 13:07:00,
2014-08-29 09:13:00,61.9,34.0,0.00,West,270,0.0,0.0,35,0.00,,---,0.00,VWS V15.00,2014-08-29 13:13:00,
2014-08-29 09:19:00,62.6,33.9,0.00,West,270,0.0,0.0,34,0.00,,---,0.00,VWS V15.00,2014-08-29 13:19:00,
2014-08-29 09:24:00,63.1,34.3,0.00,West,270,0.0,0.0,34,0.00,,---,0.00,VWS V15.00,2014-08-29 13:24:00,
2014-08-29 09:30:00,63.5,34.7,0.00,West,270,0.0,0.0,34,0.00,,---,0.00,VWS V15.00,2014-08-29 13:30:00,
2014-08-29 09:58:00,65.5,35.6,0.00,ESE,105,3.6,3.6,33,0.00,,---,0.00,VWS V15.00,2014-08-29 13:58:00,
2014-08-29 10:04:00,65.8,36.0,0.00,ESE,105,0.0,0.0,33,0.00,,---,0.00,VWS V15.00,2014-08-29 14:04:00,
2014-08-29 10:09:00,66.0,36.1,0.00,ESE,105,0.0,0.0,33,0.00,,---,0.00,VWS V15.00,2014-08-29 14:09:00,
2014-08-29 10:15:00,66.2,36.3,0.00,SE,128,0.0,0.0,33,0.00,,---,0.00,VWS V15.00,2014-08-29 14:15:00,
2014-08-29 10:21:00,66.7,36.8,0.00,ESE,115,0.0,0.0,33,0.00,,---,0.00,VWS V15.00,2014-08-29 14:21:00,
2014-08-29 10:26:00,66.9,36.9,0.00,ESE,115,0.0,0.0,33,0.00,,---,0.00,VWS V15.00,2014-08-29 14:26:00,
2014-08-29 10:32:00,67.1,37.1,0.00,ESE,104,0.0,0.0,33,0.00,,---,0.00,VWS V15.00,2014-08-29 14:32:00,
2014-08-29 10:50:00,68.0,37.8,0.00,ESE,118,0.0,0.0,33,0.00,,---,0.00,VWS V15.00,2014-08-29 14:50:00,
2014-08-29 10:55:00,68.2,38.0,0.00,ESE,118,0.0,0.0,33,0.00,,---,0.00,VWS V15.00,2014-08-29 14:55:00,
2014-08-29 11:01:00,68.4,38.2,0.00,East,101,0.0,3.1,33,0.00,,---,0.00,VWS V15.00,2014-08-29 15:01:00,
2014-08-29 11:06:00,68.7,38.5,0.00,SSE,153,0.0,0.0,33,0.00,,---,0.00,VWS V15.00,2014-08-29 15:06:00,
2014-08-29 11:11:00,68.9,38.6,0.00,ESE,122,0.0,2.7,33,0.00,,---,0.00,VWS V15.00,2014-08-29 15:11:00,
2014-08-29 11:17:00,69.3,39.0,0.00,ESE,122,0.0,0.0,33,0.00,,---,0.00,VWS V15.00,2014-08-29 15:17:00,
2014-08-29 11:22:00,69.4,39.1,0.00,WSW,245,0.0,0.0,33,0.00,,---,0.00,VWS V15.00,2014-08-29 15:22:00,
2014-08-29 11:28:00,69.4,39.1,0.00,SE,136,0.0,0.0,33,0.00,,---,0.00,VWS V15.00,2014-08-29 15:28:00,
2014-08-29 11:58:00,70.5,39.3,0.00,East,100,0.0,3.6,32,0.00,,---,0.00,VWS V15.00,2014-08-29 15:58:00,
2014-08-29 12:04:00,70.3,39.1,0.00,East,101,2.7,2.7,32,0.00,,---,0.00,VWS V15.00,2014-08-29 16:04:00,
2014-08-29 12:09:00,70.7,39.4,0.00,East,97,2.7,2.7,32,0.00,,---,0.00,VWS V15.00,2014-08-29 16:09:00,
2014-08-29 12:14:00,70.9,39.6,0.00,East,93,0.0,2.2,32,0.00,,---,0.00,VWS V15.00,2014-08-29 16:14:00,
2014-08-29 12:20:00,71.2,39.9,0.00,ESE,102,0.0,0.0,32,0.00,,---,0.00,VWS V15.00,2014-08-29 16:20:00,
2014-08-29 12:25:00,71.6,40.2,0.00,ESE,102,0.0,0.0,32,0.00,,---,0.00,VWS V15.00,2014-08-29 16:25:00,
2014-08-29 12:32:00,71.6,40.2,0.00,ESE,103,0.0,0.0,32,0.00,,---,0.00,VWS V15.00,2014-08-29 16:32:00,
2014-08-29 13:07:00,72.9,41.3,0.00,ESE,108,0.0,5.4,32,0.00,,---,0.00,VWS V15.00,2014-08-29 17:07:00,
2014-08-29 13:12:00,73.4,41.0,0.00,ESE,110,0.0,2.7,31,0.00,,---,0.00,VWS V15.00,2014-08-29 17:12:00,
2014-08-29 13:17:00,73.4,41.0,0.00,West,263,2.7,3.1,31,0.00,,---,0.00,VWS V15.00,2014-08-29 17:17:00,
2014-08-29 13:23:00,72.9,41.3,0.00,South,182,2.2,3.6,32,0.00,,---,0.00,VWS V15.00,2014-08-29 17:23:00,
2014-08-29 13:28:00,72.9,41.3,0.00,West,278,0.0,0.0,32,0.00,,---,0.00,VWS V15.00,2014-08-29 17:28:00,
2014-08-29 13:58:00,74.1,41.6,0.00,ESE,123,0.0,4.0,31,0.00,,---,0.00,VWS V15.00,2014-08-29 17:58:00,
2014-08-29 14:03:00,74.5,41.9,0.00,South,186,2.7,2.7,31,0.00,,---,0.00,VWS V15.00,2014-08-29 18:03:00,
2014-08-29 14:08:00,74.5,41.9,0.00,South,186,0.0,0.0,31,0.00,,---,0.00,VWS V15.00,2014-08-29 18:08:00,
2014-08-29 14:13:00,74.7,42.0,0.00,South,187,0.0,0.0,31,0.00,,---,0.00,VWS V15.00,2014-08-29 18:13:00,
2014-08-29 14:18:00,75.0,42.4,0.00,SE,134,0.0,0.0,31,0.00,,---,0.00,VWS V15.00,2014-08-29 18:18:00,
2014-08-29 14:23:00,75.2,42.5,0.00,ESE,105,2.7,2.7,31,0.00,,---,0.00,VWS V15.00,2014-08-29 18:23:00,
2014-08-29 14:28:00,75.2,42.5,0.00,ESE,102,2.7,2.7,31,0.00,,---,0.00,VWS V15.00,2014-08-29 18:28:00,
2014-08-29 15:07:00,76.8,43.9,0.00,East,98,0.0,3.6,31,0.00,,---,0.00,VWS V15.00,2014-08-29 19:07:00,
2014-08-29 15:13:00,77.2,44.2,0.00,East,99,0.0,2.7,31,0.00,,---,0.00,VWS V15.00,2014-08-29 19:13:00,
2014-08-29 15:18:00,77.4,44.4,0.00,East,100,0.0,0.0,31,0.00,,---,0.00,VWS V15.00,2014-08-29 19:18:00,
2014-08-29 15:24:00,77.7,44.7,0.00,East,100,0.0,0.0,31,0.00,,---,0.00,VWS V15.00,2014-08-29 19:24:00,
2014-08-29 15:29:00,77.7,44.7,0.00,East,100,0.0,0.0,31,0.00,,---,0.00,VWS V15.00,2014-08-29 19:29:00,
2014-08-29 15:58:00,79.2,45.1,0.00,ESE,113,0.0,0.0,30,0.00,,---,0.00,VWS V15.00,2014-08-29 19:58:00,
2014-08-29 16:04:00,79.3,45.2,0.00,ESE,113,0.0,0.0,30,0.00,,---,0.00,VWS V15.00,2014-08-29 20:04:00,
2014-08-29 16:09:00,79.5,45.4,0.00,ESE,113,0.0,0.0,30,0.00,,---,0.00,VWS V15.00,2014-08-29 20:09:00,
2014-08-29 16:16:00,79.9,45.7,0.00,ESE,113,0.0,0.0,30,0.00,,---,0.00,VWS V15.00,2014-08-29 20:16:00,
2014-08-29 16:21:00,79.9,45.7,0.00,East,92,0.0,0.0,30,0.00,,---,0.00,VWS V15.00,2014-08-29 20:21:00,
2014-08-29 16:27:00,80.4,46.2,0.00,East,93,0.0,2.7,30,0.00,,---,0.00,VWS V15.00,2014-08-29 20:27:00,
2014-08-29 16:32:00,80.1,45.9,0.00,ESE,106,0.0,0.0,30,0.00,,---,0.00,VWS V15.00,2014-08-29 20:32:00,
2014-08-29 17:07:00,80.1,45.9,0.00,East,101,2.7,4.0,30,0.00,,---,0.00,VWS V15.00,2014-08-29 21:07:00,
2014-08-29 17:12:00,80.4,46.2,0.00,East,101,0.0,0.0,30,0.00,,---,0.00,VWS V15.00,2014-08-29 21:12:00,
2014-08-29 17:18:00,80.2,46.0,0.00,East,101,0.0,2.2,30,0.00,,---,0.00,VWS V15.00,2014-08-29 21:18:00,
2014-08-29 17:23:00,80.8,46.5,0.00,East,101,0.0,0.0,30,0.00,,---,0.00,VWS V15.00,2014-08-29 21:23:00,
2014-08-29 17:29:00,81.5,47.1,0.00,East,101,0.0,0.0,30,0.00,,---,0.00,VWS V15.00,2014-08-29 21:29:00,
2014-08-29 17:58:00,81.1,46.8,0.00,East,97,0.0,3.1,30,0.00,,---,0.00,VWS V15.00,2014-08-29 21:58:00,
2014-08-29 18:04:00,80.8,46.5,0.00,ESE,112,0.0,3.1,30,0.00,,---,0.00,VWS V15.00,2014-08-29 22:04:00,
2014-08-29 18:09:00,81.1,46.8,0.00,ESE,113,0.0,0.0,30,0.00,,---,0.00,VWS V15.00,2014-08-29 22:09:00,
2014-08-29 18:15:00,81.3,47.0,0.00,ESE,115,0.0,0.0,30,0.00,,---,0.00,VWS V15.00,2014-08-29 22:15:00,
2014-08-29 18:20:00,81.7,47.3,0.00,ESE,115,0.0,0.0,30,0.00,,---,0.00,VWS V15.00,2014-08-29 22:20:00,
2014-08-29 18:25:00,82.6,47.1,0.00,East,101,0.0,2.2,29,0.00,,---,0.00,VWS V15.00,2014-08-29 22:25:00,
2014-08-29 18:31:00,83.8,48.2,0.00,East,101,0.0,0.0,29,0.00,,---,0.00,VWS V15.00,2014-08-29 22:31:00,
2014-08-29 19:07:00,78.3,45.2,0.00,East,101,0.0,0.0,31,0.00,,---,0.00,VWS V15.00,2014-08-29 23:07:00,
2014-08-29 19:12:00,77.9,44.9,0.00,East,101,0.0,0.0,31,0.00,,---,0.00,VWS V15.00,2014-08-29 23:12:00,
2014-08-29 19:17:00,77.9,44.9,0.00,East,101,0.0,0.0,31,0.00,,---,0.00,VWS V15.00,2014-08-29 23:17:00,
2014-08-29 19:23:00,77.2,44.2,0.00,East,101,0.0,0.0,31,0.00,,---,0.00,VWS V15.00,2014-08-29 23:23:00,
2014-08-29 19:28:00,75.9,43.1,0.00,East,101,0.0,0.0,31,0.00,,---,0.00,VWS V15.00,2014-08-29 23:28:00,
2014-08-29 19:58:00,68.2,38.0,0.00,East,101,0.0,0.0,33,0.00,,---,0.00,VWS V15.00,2014-08-29 23:58:00,
2014-08-29 20:03:00,67.3,37.2,0.00,East,101,0.0,0.0,33,0.00,,---,0.00,VWS V15.00,2014-08-30 00:03:00,
2014-08-29 20:09:00,66.2,36.3,0.00,East,101,0.0,0.0,33,0.00,,---,0.00,VWS V15.00,2014-08-30 00:09:00,
2014-08-29 20:14:00,65.5,35.6,0.00,East,101,0.0,0.0,33,0.00,,---,0.00,VWS V15.00,2014-08-30 00:14:00,
2014-08-29 20:19:00,65.1,35.3,0.00,East,101,0.0,0.0,33,0.00,,---,0.00,VWS V15.00,2014-08-30 00:19:00,
2014-08-29 20:24:00,64.6,34.8,0.00,East,101,0.0,0.0,33,0.00,,---,0.00,VWS V15.00,2014-08-30 00:24:00,
2014-08-29 20:30:00,64.2,35.3,0.00,East,101,0.0,0.0,34,0.00,,---,0.00,VWS V15.00,2014-08-30 00:30:00,
2014-08-29 21:06:00,62.1,34.1,0.00,East,101,0.0,0.0,35,0.00,,---,0.00,VWS V15.00,2014-08-30 01:06:00,
2014-08-29 21:11:00,61.9,34.0,0.00,East,101,0.0,0.0,35,0.00,,---,0.00,VWS V15.00,2014-08-30 01:11:00,
2014-08-29 21:17:00,61.5,33.6,0.00,East,101,0.0,0.0,35,0.00,,---,0.00,VWS V15.00,2014-08-30 01:17:00,
2014-08-29 21:22:00,61.2,33.3,0.00,East,101,0.0,0.0,35,0.00,,---,0.00,VWS V15.00,2014-08-30 01:22:00,
2014-08-29 21:27:00,60.8,33.0,0.00,East,101,0.0,0.0,35,0.00,,---,0.00,VWS V15.00,2014-08-30 01:27:00,